Terminal Aerodrome Forecast
Issued by NWS Mobile, AL

Home | Current Version | Previous Version | Text Only | Print | Product List | Glossary On
Versions: 1 2 3 4 5 6 7 8 9 10 11 12 13 14 15 16
000
FTUS44 KMOB 210500
TAFMOB
TAF
KMOB 210527Z 2106/2206 15004KT P6SM SKC
     FM210900 06003KT 4SM BR FEW250
     FM211400 12006KT P6SM SCT030 BKN250
     FM212100 17007KT P6SM SCT250=

USA.gov is the U.S. government's official web portal to all federal, state and local government web resources and services.